Flight Track Log - Related Links

Times and Time Zones

All times are in EDT time to prevent confusion due to time zone crossing. See the JBU608 flight status page for this flight to view local times or setup timezone preferences in your user account.


Time Position Orientation Groundspeed Altitude Reporting Facility
EDT Latitude Longitude Course Direction KTS MPH feet Rate Location/Type
Sat 12:17:26 AM 40.6833 -73.7167 47° Northeast 197 227 2,400  Level New York TRACON
Sat 12:22:26 AM 40.9317 -73.3606 26° Northeast 314 361 14,700 2,367 Climbing Boston Center
Sat 12:23:26 AM 41.0217 -73.3011 39° Northeast 326 375 16,600 1,150 Climbing Boston Center
Sat 12:24:26 AM 41.0972 -73.2194 40° Northeast 357 411 17,000 200 Climbing Boston Center
Sat 12:25:26 AM 41.1856 -73.1214 38° Northeast 388 447 17,000 -50 Level Boston Center
Sat 12:26:26 AM 41.2778 -73.0256 40° Northeast 402 463 16,900  Descending Boston Center
Sat 12:27:26 AM 41.3739 -72.9186 40° Northeast 402 463 17,000 50 Climbing Boston Center
Sat 12:28:26 AM 41.4536 -72.8306 39° Northeast 407 468 17,000  Level Boston Center
Sat 12:29:26 AM 41.5519 -72.7231 40° Northeast 407 468 17,000  Level Boston Center
Sat 12:30:26 AM 41.6333 -72.6317 39° Northeast 407 468 17,000  Level Boston Center
Sat 12:31:26 AM 41.7314 -72.5236 41° Northeast 407 468 17,000  Level Boston Center
Sat 12:32:26 AM 41.8106 -72.4317 39° Northeast 412 474 17,000  Level Boston Center
Sat 12:33:26 AM 41.9086 -72.3258 40° Northeast 412 474 17,000  Level Boston Center
Sat 12:34:26 AM 41.9875 -72.2361 40° Northeast 412 474 17,000 -50 Level Boston Center
Sat 12:35:26 AM 42.0853 -72.1267 40° Northeast 412 474 16,900 -50 Descending Boston Center
Sat 12:36:26 AM 42.1642 -72.0367 40° Northeast 412 474 16,900  Level Boston Center
Sat 12:37:26 AM 42.2597 -71.9294 40° Northeast 412 474 16,900  Level Boston Center
Sat 12:38:26 AM 42.3406 -71.8361 39° Northeast 412 474 16,900  Level Boston Center
Sat 12:39:26 AM 42.4397 -71.7256 40° Northeast 412 474 16,900  Level Boston Center
Sat 12:40:26 AM 42.5183 -71.6344 40° Northeast 412 474 16,900 50 Level Boston Center
Sat 12:41:26 AM 42.6156 -71.5231 39° Northeast 412 474 17,000 50 Climbing Boston Center
Sat 12:42:26 AM 42.6961 -71.4344 41° Northeast 412 474 17,000  Level Boston Center
Sat 12:43:26 AM 42.7908 -71.3225 40° Northeast 412 474 17,000  Level Boston Center
Sat 12:44:26 AM 42.8692 -71.2333 28° Northeast 412 474 17,000  Level Boston Center
Sat 12:45:26 AM 42.9808 -71.1517 29° Northeast 412 474 17,000 -650 Level Boston Center
Sat 12:46:26 AM 43.0781 -71.0786 31° Northeast 401 461 15,700 -1,596 Descending Boston Center
Sat 12:47:00 AM 43.1333 -71.0333 36° Northeast 386 444 14,500 -2,043 Descending Boston TRACON
Sat 12:48:00 AM 43.2167 -70.9500 36° Northeast 374 430 12,500 -1,900 Descending Boston TRACON
Sat 12:49:00 AM 43.3000 -70.8667 29° Northeast 353 406 10,700 -1,421 Descending Boston TRACON
Sat 12:49:54 AM 43.3667 -70.8167 38° Northeast 317 365 9,800 -1,186 Descending Boston TRACON
Sat 12:50:26 AM 43.3931 -70.7886 34° Northeast 321 369 9,000 -1,696 Descending Boston Center
Sat 12:51:26 AM 43.4650 -70.7208 31° Northeast 301 346 7,200 -1,750 Descending Boston Center
Sat 12:52:26 AM 43.5286 -70.6675 34° Northeast 289 333 5,500 -1,350 Descending Boston Center
Sat 12:53:26 AM 43.5925 -70.6083 37° Northeast 269 310 4,500 -950 Descending Boston Center
Sat 12:54:26 AM 43.6356 -70.5639 65° Northeast 231 266 3,600 -900 Descending Boston Center
Sat 12:55:26 AM 43.6572 -70.5000 94° East 182 209 2,700 -900 Descending Boston Center
Sat 12:56:26 AM 43.6542 -70.4400 94° East 168 193 1,800 -900 Descending Boston Center
Sat 12:57:26 AM 43.6511 -70.3769 96° East 157 181 900 -800 Descending Boston Center
Sat 12:58:26 AM 43.6481 -70.3339 100° East 136 157 200 1,550 Descending Boston Center
Sat 12:59:26 AM 43.6408 -70.2769 100° East 136 157 4,000 3,800 Climbing Boston Center

Login

Don't have an account? Register now (free) for customized features, flight alerts, and more!